Time;durP1;ratioP1;P1;durP2;ratioP2;P2;SDS_P1;SDS_P2;PMS_P1;PMS_P2;Temp;Humidity;BMP_temperature;BMP_pressure;BME280_temperature;BME280_humidity;BME280_pressure;Samples;Min_cycle;Max_cycle;Signal;HPM_P1;HPM_P2
2023/12/31 00:01:46;;;;;;;10.20;6.70;;;;;;;1.97;97.83;99033.84;79153;1302;3011568;-64
2023/12/31 00:04:12;;;;;;;8.90;5.80;;;;;;;1.80;98.14;99028.66;79285;1301;3011717;-65
2023/12/31 00:06:41;;;;;;;7.30;4.30;;;;;;;1.52;99.38;99031.63;78105;1301;3052381;-65
2023/12/31 00:09:08;;;;;;;8.20;5.30;;;;;;;1.60;99.78;99033.59;79057;1304;3013636;-66
2023/12/31 00:11:34;;;;;;;9.50;6.00;;;;;;;2.20;99.22;99035.15;78893;1299;3011482;-66
2023/12/31 00:14:02;;;;;;;12.20;6.30;;;;;;;2.19;97.15;99038.63;78026;1301;3049529;-65
2023/12/31 00:16:29;;;;;;;9.40;5.50;;;;;;;2.13;97.36;99036.60;79243;1299;3013286;-65
2023/12/31 00:18:56;;;;;;;10.60;6.90;;;;;;;2.07;97.71;99038.16;79193;1301;3011768;-65
2023/12/31 00:21:24;;;;;;;8.20;5.30;;;;;;;1.74;98.43;99035.94;77975;1298;3027956;-65
2023/12/31 00:23:50;;;;;;;8.20;5.60;;;;;;;1.74;99.23;99035.06;79273;1298;3013747;-65
2023/12/31 00:26:17;;;;;;;8.70;5.00;;;;;;;2.27;98.78;99040.95;79238;1301;3011723;-66
2023/12/31 00:28:45;;;;;;;10.70;6.80;;;;;;;2.82;95.49;99042.00;78023;1301;3028177;-66
2023/12/31 00:31:12;;;;;;;9.00;5.70;;;;;;;2.81;93.95;99035.48;79430;1301;3013236;-66
2023/12/31 00:33:38;;;;;;;10.50;6.50;;;;;;;2.65;93.85;99032.05;79414;1301;3011899;-66
2023/12/31 00:36:06;;;;;;;12.00;7.00;;;;;;;2.25;95.04;99032.55;78016;1301;3026894;-65
2023/12/31 00:38:33;;;;;;;10.40;5.90;;;;;;;2.08;96.68;99026.56;79356;1302;3013736;-64
2023/12/31 00:41:00;;;;;;;8.70;5.50;;;;;;;2.04;97.43;99037.23;79130;1304;3012111;-65
2023/12/31 00:43:28;;;;;;;12.30;7.50;;;;;;;2.42;97.10;99034.40;77877;1304;3028681;-63
2023/12/31 00:45:54;;;;;;;12.40;7.50;;;;;;;2.48;95.98;99040.60;79306;1301;3018296;-66
2023/12/31 00:48:21;;;;;;;10.20;6.60;;;;;;;2.14;97.27;99044.31;79376;1301;3011651;-63
2023/12/31 00:50:49;;;;;;;10.20;6.60;;;;;;;2.29;96.69;99037.27;77958;1301;3025959;-64
2023/12/31 00:53:16;;;;;;;9.10;5.90;;;;;;;2.07;97.86;99042.30;79269;1301;3013445;-65
2023/12/31 00:55:43;;;;;;;7.40;4.70;;;;;;;2.14;97.52;99051.92;79307;1298;3011774;-65
2023/12/31 00:58:12;;;;;;;10.50;6.10;;;;;;;2.51;97.03;99033.27;78068;1301;3048989;-63
2023/12/31 01:00:39;;;;;;;10.60;6.70;;;;;;;2.67;95.94;99034.92;79217;1302;3011645;-65
2023/12/31 01:03:06;;;;;;;10.00;6.30;;;;;;;2.91;94.47;99025.41;79147;1298;3011410;-64
2023/12/31 01:05:34;;;;;;;12.10;6.00;;;;;;;2.60;94.47;99037.06;78141;1301;3053059;-64
2023/12/31 01:08:01;;;;;;;10.40;6.20;;;;;;;2.36;95.63;99030.61;79329;1300;3013530;-65
2023/12/31 01:10:28;;;;;;;11.50;7.10;;;;;;;2.15;97.13;99028.06;79110;1298;3011451;-65
2023/12/31 01:12:56;;;;;;;11.60;6.90;;;;;;;2.37;97.61;99034.05;78073;1298;3049162;-64
2023/12/31 01:15:22;;;;;;;9.70;5.20;;;;;;;2.99;95.34;99039.52;79217;1301;3012979;-66
2023/12/31 01:17:49;;;;;;;13.10;7.50;;;;;;;3.12;93.98;99045.59;79080;1304;3012836;-65
2023/12/31 01:20:17;;;;;;;10.80;6.60;;;;;;;3.05;93.47;99043.95;77969;1301;3027974;-64
2023/12/31 01:22:48;;;;;;;13.60;8.10;;;;;;;2.70;94.00;99033.60;79380;1299;3014161;-66
2023/12/31 01:25:16;;;;;;;13.00;7.70;;;;;;;2.45;95.21;99034.81;78182;1301;3056350;-65
2023/12/31 01:27:43;;;;;;;13.90;8.80;;;;;;;2.96;95.62;99033.54;79154;1299;3013327;-65
2023/12/31 01:30:10;;;;;;;12.70;7.70;;;;;;;2.96;94.31;99028.88;79320;1299;3013754;-64
2023/12/31 01:32:38;;;;;;;13.20;7.70;;;;;;;2.93;93.90;99027.59;77961;1317;3052821;-65
2023/12/31 01:35:05;;;;;;;15.00;9.10;;;;;;;3.06;93.90;99030.10;79226;1301;3019249;-65
2023/12/31 01:37:32;;;;;;;14.70;8.00;;;;;;;2.76;94.58;99038.08;79319;1301;3011716;-66
2023/12/31 01:40:00;;;;;;;12.50;7.40;;;;;;;2.32;96.60;99041.64;77994;1301;3056741;-66
2023/12/31 01:42:27;;;;;;;11.50;7.00;;;;;;;2.28;97.51;99029.17;79295;1302;3012947;-65
2023/12/31 01:44:54;;;;;;;13.10;8.00;;;;;;;3.25;96.23;99037.30;79156;1299;3013236;-65
2023/12/31 01:47:22;;;;;;;18.90;10.20;;;;;;;3.33;93.52;99035.33;77958;1301;3027203;-64
2023/12/31 01:49:49;;;;;;;12.90;8.00;;;;;;;3.07;94.05;99036.97;79393;1301;3013606;-66
2023/12/31 01:52:15;;;;;;;18.20;10.60;;;;;;;2.99;94.46;99037.59;79166;1301;3011509;-67
2023/12/31 01:54:43;;;;;;;17.70;10.00;;;;;;;2.79;95.36;99037.98;77879;1302;3027240;-66
2023/12/31 01:57:10;;;;;;;22.10;11.70;;;;;;;2.72;95.89;99029.56;79232;1301;3013165;-65
2023/12/31 01:59:37;;;;;;;14.50;7.40;;;;;;;2.35;97.42;99015.79;79112;1301;3011712;-64
2023/12/31 02:02:05;;;;;;;16.60;8.80;;;;;;;3.28;96.45;99029.39;78190;1297;3026091;-63
2023/12/31 02:04:33;;;;;;;17.20;10.00;;;;;;;3.42;93.16;99028.58;79267;1297;3013552;-66
2023/12/31 02:07:00;;;;;;;23.10;11.70;;;;;;;3.31;92.86;99033.13;79543;1298;3011700;-66
2023/12/31 02:09:28;;;;;;;18.80;10.90;;;;;;;3.19;93.86;99032.88;78356;1295;3056447;-65
2023/12/31 02:11:55;;;;;;;18.30;10.30;;;;;;;3.25;93.17;99032.67;79467;1294;3011702;-68
2023/12/31 02:14:22;;;;;;;23.80;13.10;;;;;;;2.84;94.26;99048.48;79427;1295;3013889;-66
2023/12/31 02:16:51;;;;;;;21.50;12.70;;;;;;;2.59;96.37;99043.50;78286;1298;3052032;-65
2023/12/31 02:19:17;;;;;;;17.80;10.00;;;;;;;2.87;96.89;99042.36;79670;1298;3018783;-67
2023/12/31 02:21:44;;;;;;;18.30;10.40;;;;;;;3.42;95.07;99047.79;79489;1301;3011473;-67
2023/12/31 02:24:14;;;;;;;21.10;10.80;;;;;;;3.45;93.32;99045.25;78241;1295;3026682;-66
2023/12/31 02:26:41;;;;;;;20.00;10.40;;;;;;;3.31;93.56;99050.76;79513;1295;3013193;-66
2023/12/31 02:29:07;;;;;;;20.90;11.00;;;;;;;2.98;93.90;99055.97;79467;1295;3011743;-67
2023/12/31 02:31:36;;;;;;;20.10;10.90;;;;;;;3.00;94.61;99067.69;78243;1298;3052781;-64
2023/12/31 02:34:03;;;;;;;18.60;10.10;;;;;;;2.98;95.55;99062.71;79445;1298;3013519;-65
2023/12/31 02:36:30;;;;;;;20.90;11.60;;;;;;;3.18;94.28;99056.64;79366;1298;3011691;-64
2023/12/31 02:38:58;;;;;;;19.50;11.20;;;;;;;3.03;94.86;99069.48;78188;1298;3028068;-63
2023/12/31 02:41:25;;;;;;;19.00;10.90;;;;;;;3.18;94.63;99067.53;79327;1295;3018980;-66
2023/12/31 02:43:51;;;;;;;25.00;12.80;;;;;;;2.93;94.85;99062.38;79341;1301;3011430;-65
2023/12/31 02:46:19;;;;;;;16.80;8.60;;;;;;;2.91;94.80;99069.91;78217;1298;3024837;-66
2023/12/31 02:48:46;;;;;;;19.60;10.90;;;;;;;3.01;96.01;99063.30;79402;1298;3020952;-65
2023/12/31 02:51:12;;;;;;;25.10;12.30;;;;;;;3.86;93.04;99072.06;79342;1298;3011874;-66
2023/12/31 02:53:40;;;;;;;21.40;12.40;;;;;;;3.55;91.73;99062.70;78135;1298;3024869;-68
2023/12/31 02:56:07;;;;;;;21.30;12.30;;;;;;;3.32;93.28;99072.21;79452;1295;3013277;-65
2023/12/31 02:58:35;;;;;;;21.70;11.60;;;;;;;3.19;93.26;99072.88;79375;1298;3011660;-65
2023/12/31 03:01:03;;;;;;;20.00;11.40;;;;;;;2.98;94.13;99082.30;78169;1301;3051223;-64
2023/12/31 03:03:30;;;;;;;18.10;10.20;;;;;;;3.22;94.33;99080.19;79460;1298;3012836;-64
2023/12/31 03:05:56;;;;;;;25.20;13.50;;;;;;;3.49;92.94;99075.39;79419;1298;3011599;-65
2023/12/31 03:08:25;;;;;;;27.60;14.20;;;;;;;3.51;91.90;99076.52;78225;1298;3028699;-64
2023/12/31 03:10:51;;;;;;;20.60;11.80;;;;;;;3.14;93.19;99084.64;79492;1298;3012862;-65
2023/12/31 03:13:18;;;;;;;20.40;10.70;;;;;;;2.93;94.00;99076.56;79372;1298;3011641;-66
2023/12/31 03:15:46;;;;;;;21.20;12.50;;;;;;;2.80;95.31;99082.56;78110;1298;3028701;-66
2023/12/31 03:18:13;;;;;;;22.10;11.70;;;;;;;2.64;96.84;99077.73;79470;1298;3020741;-65
2023/12/31 03:20:40;;;;;;;21.50;11.90;;;;;;;3.25;95.83;99080.27;79431;1295;3011854;-64
2023/12/31 03:23:08;;;;;;;23.10;13.10;;;;;;;3.36;93.96;99071.71;78352;1298;3057255;-65
2023/12/31 03:25:35;;;;;;;25.40;13.80;;;;;;;3.38;93.82;99082.22;79427;1298;3013328;-63
2023/12/31 03:28:02;;;;;;;28.20;13.70;;;;;;;3.29;93.79;99086.00;79407;1296;3013726;-64
2023/12/31 03:30:30;;;;;;;24.60;13.80;;;;;;;2.94;94.11;99076.53;78231;1298;3028851;-63
2023/12/31 03:32:57;;;;;;;19.80;10.70;;;;;;;2.88;95.63;99080.53;79589;1298;3013830;-65
2023/12/31 03:35:24;;;;;;;27.50;14.10;;;;;;;3.65;93.21;99081.38;79503;1301;3011376;-63
2023/12/31 03:37:51;;;;;;;27.00;14.00;;;;;;;3.54;92.35;99080.21;78274;1298;3026709;-69
2023/12/31 03:40:20;;;;;;;23.90;12.80;;;;;;;3.48;92.64;99090.85;79560;1295;3013531;-66
2023/12/31 03:42:46;;;;;;;23.20;13.00;;;;;;;3.41;92.47;99085.40;79610;1295;3013638;-66
2023/12/31 03:45:15;;;;;;;23.50;13.20;;;;;;;3.02;93.60;99082.48;78451;1308;3051740;-67
2023/12/31 03:47:42;;;;;;;15.70;9.50;;;;;;;2.93;94.15;99082.10;79300;1301;3013611;-65
2023/12/31 03:50:09;;;;;;;22.30;12.50;;;;;;;2.94;94.24;99090.40;79443;1301;3011684;-67
2023/12/31 03:52:38;;;;;;;29.50;14.20;;;;;;;3.28;94.20;99089.50;78288;1298;3028437;-66
2023/12/31 03:55:05;;;;;;;25.70;13.30;;;;;;;3.81;92.33;99100.52;79653;1298;3015772;-66
2023/12/31 03:57:32;;;;;;;15.40;9.80;;;;;;;3.42;91.66;99102.31;79450;1300;3011710;-68
2023/12/31 04:00:03;;;;;;;26.10;15.00;;;;;;;3.32;92.16;99110.48;78208;1298;3051751;-66
2023/12/31 04:02:31;;;;;;;25.50;14.50;;;;;;;3.03;93.54;99103.56;79510;1296;3013455;-66
2023/12/31 04:05:00;;;;;;;23.20;11.40;;;;;;;2.88;94.64;99110.48;78344;1298;3068271;-66
2023/12/31 04:07:27;;;;;;;25.40;13.90;;;;;;;2.84;95.30;99103.36;79528;1298;3014932;-67
2023/12/31 04:09:54;;;;;;;24.20;12.00;;;;;;;3.56;94.19;99114.96;79562;1295;3012976;-68
2023/12/31 04:12:23;;;;;;;27.30;14.00;;;;;;;3.12;93.59;99103.92;78380;1296;3052533;-68
2023/12/31 04:14:49;;;;;;;24.00;14.10;;;;;;;3.25;93.87;99116.29;79551;1298;3013585;-67
2023/12/31 04:17:16;;;;;;;30.20;14.60;;;;;;;2.83;94.56;99112.55;79436;1298;3013233;-65
2023/12/31 04:19:44;;;;;;;21.00;11.10;;;;;;;2.97;94.22;99130.58;78384;1296;3027393;-65
2023/12/31 04:22:10;;;;;;;19.20;10.90;;;;;;;3.07;94.62;99133.67;79569;1299;3018794;-67
2023/12/31 04:24:39;;;;;;;17.50;8.70;;;;;;;3.45;92.99;99137.69;79428;1296;3011903;-66
2023/12/31 04:27:07;;;;;;;23.70;13.60;;;;;;;3.75;90.25;99125.48;78230;1299;3051704;-66
2023/12/31 04:29:33;;;;;;;22.40;12.80;;;;;;;3.43;91.68;99140.03;79396;1301;3013528;-66
2023/12/31 04:32:00;;;;;;;26.70;14.30;;;;;;;3.01;92.22;99127.16;79440;1302;3011927;-68
2023/12/31 04:34:28;;;;;;;25.10;14.00;;;;;;;3.04;93.44;99138.65;78124;1296;3028226;-66
2023/12/31 04:36:55;;;;;;;21.80;12.40;;;;;;;2.66;94.32;99131.65;79489;1298;3018650;-67
2023/12/31 04:39:22;;;;;;;25.00;13.60;;;;;;;3.15;94.84;99141.02;79355;1297;3011631;-67
2023/12/31 04:41:50;;;;;;;24.20;13.60;;;;;;;3.86;92.03;99136.50;78205;1300;3026413;-64
2023/12/31 04:44:16;;;;;;;23.40;13.50;;;;;;;3.79;90.54;99146.86;79421;1301;3013075;-65
2023/12/31 04:46:43;;;;;;;27.60;15.70;;;;;;;3.53;90.76;99140.02;79378;1299;3013221;-66
2023/12/31 04:49:14;;;;;;;27.00;14.70;;;;;;;3.12;91.64;99146.52;78182;1297;3025965;-65
2023/12/31 04:51:41;;;;;;;28.00;15.00;;;;;;;3.01;92.43;99147.24;79422;1295;3011404;-66
2023/12/31 04:54:10;;;;;;;21.60;10.90;;;;;;;3.08;92.44;99154.79;78807;1297;3011625;-64
2023/12/31 04:56:38;;;;;;;23.20;13.00;;;;;;;3.55;91.55;99154.16;79207;1299;3013513;-66
2023/12/31 04:59:04;;;;;;;22.40;12.50;;;;;;;3.59;89.85;99151.03;79160;1302;3013075;-66
2023/12/31 05:01:33;;;;;;;22.20;13.80;;;;;;;3.58;90.28;99159.05;78117;1301;3053387;-65
2023/12/31 05:04:02;;;;;;;25.40;14.70;;;;;;;3.47;90.20;99165.86;79225;1300;3013324;-66
2023/12/31 05:06:29;;;;;;;25.80;13.80;;;;;;;2.94;91.63;99168.59;79254;1296;3011593;-65
2023/12/31 05:08:58;;;;;;;28.20;15.30;;;;;;;2.82;92.92;99169.83;78036;1301;3058283;-65
2023/12/31 05:11:26;;;;;;;23.60;13.50;;;;;;;2.76;93.45;99168.33;79238;1297;3013815;-66
2023/12/31 05:13:53;;;;;;;21.20;12.80;;;;;;;3.08;93.55;99162.21;79211;1308;3011705;-66
2023/12/31 05:16:21;;;;;;;27.20;13.80;;;;;;;3.69;91.17;99166.27;78243;1301;3052907;-65
2023/12/31 05:18:50;;;;;;;24.30;14.50;;;;;;;3.47;89.76;99168.09;79378;1301;3020563;-66
2023/12/31 05:21:17;;;;;;;25.90;12.80;;;;;;;3.21;90.95;99171.81;79546;1298;3011480;-65
2023/12/31 05:23:45;;;;;;;22.00;12.00;;;;;;;3.07;91.40;99172.63;78228;1296;3055910;-66
2023/12/31 05:26:12;;;;;;;22.80;13.60;;;;;;;3.10;90.90;99177.04;79686;1301;3013106;-65
2023/12/31 05:28:38;;;;;;;27.40;14.60;;;;;;;2.76;91.88;99178.88;79655;1294;3011611;-64
2023/12/31 05:31:06;;;;;;;23.80;12.60;;;;;;;2.75;92.30;99169.56;78113;1299;3026422;-64
2023/12/31 05:33:34;;;;;;;23.00;13.60;;;;;;;3.22;92.07;99172.98;79374;1308;3013615;-64
2023/12/31 05:36:00;;;;;;;26.10;13.10;;;;;;;3.20;90.65;99172.00;79471;1301;3011896;-65
2023/12/31 05:38:28;;;;;;;25.00;13.70;;;;;;;3.57;89.87;99174.69;78382;1301;3056463;-66
2023/12/31 05:40:55;;;;;;;31.30;14.50;;;;;;;3.38;89.56;99176.04;79444;1296;3013018;-66
2023/12/31 05:43:22;;;;;;;24.40;13.60;;;;;;;3.22;89.68;99175.75;79427;1302;3011840;-66
2023/12/31 05:45:50;;;;;;;28.10;14.00;;;;;;;2.85;90.87;99179.09;78239;1300;3025807;-67
2023/12/31 05:48:16;;;;;;;22.90;12.20;;;;;;;2.83;90.97;99185.55;79473;1301;3013158;-69
2023/12/31 05:50:43;;;;;;;20.70;11.90;;;;;;;3.13;91.36;99183.48;79433;1301;3011708;-66
2023/12/31 05:53:12;;;;;;;21.10;12.00;;;;;;;3.59;88.61;99184.13;78353;1295;3026218;-65
2023/12/31 05:55:38;;;;;;;20.30;11.60;;;;;;;3.36;88.65;99184.94;79352;1297;3013683;-66
2023/12/31 05:58:05;;;;;;;23.00;12.10;;;;;;;3.27;88.61;99188.90;79434;1297;3011752;-66
2023/12/31 06:00:33;;;;;;;23.20;13.10;;;;;;;3.18;88.53;99185.41;78371;1301;3052847;-65
2023/12/31 06:03:00;;;;;;;23.20;12.60;;;;;;;2.81;89.59;99182.69;79355;1309;3013199;-65
2023/12/31 06:05:27;;;;;;;20.10;12.50;;;;;;;2.65;90.52;99190.46;79364;1309;3011490;-65
2023/12/31 06:07:55;;;;;;;24.10;13.60;;;;;;;2.96;90.71;99190.12;78169;1301;3028136;-62
2023/12/31 06:10:22;;;;;;;25.30;14.30;;;;;;;3.75;87.97;99194.45;79393;1298;3013083;-67
2023/12/31 06:12:50;;;;;;;23.30;13.30;;;;;;;3.58;86.84;99204.44;79536;1299;3013743;-65
2023/12/31 06:15:17;;;;;;;22.80;13.00;;;;;;;3.52;86.74;99216.25;78299;1300;3050698;-68
2023/12/31 06:17:44;;;;;;;24.40;14.00;;;;;;;3.29;87.07;99216.04;79798;1298;3013194;-66
2023/12/31 06:20:11;;;;;;;23.40;14.10;;;;;;;2.87;88.14;99214.14;79492;1302;3011715;-67
2023/12/31 06:22:39;;;;;;;22.90;13.90;;;;;;;2.66;89.73;99215.02;78304;1301;3025851;-68
2023/12/31 06:25:06;;;;;;;19.60;11.40;;;;;;;2.54;90.44;99210.87;79408;1296;3018819;-63
2023/12/31 06:27:33;;;;;;;22.30;12.00;;;;;;;3.32;89.77;99210.70;79550;1296;3011754;-65
2023/12/31 06:30:01;;;;;;;21.60;12.80;;;;;;;3.83;86.73;99210.62;78093;1301;3027421;-66
2023/12/31 06:32:28;;;;;;;21.90;12.10;;;;;;;3.67;85.91;99210.51;79293;1295;3013122;-65
2023/12/31 06:34:54;;;;;;;23.60;13.40;;;;;;;3.67;85.67;99209.64;79630;1301;3011502;-67
2023/12/31 06:37:25;;;;;;;27.00;14.60;;;;;;;3.43;85.87;99216.23;78193;1295;3026951;-67
2023/12/31 06:39:53;;;;;;;24.10;13.60;;;;;;;3.04;87.25;99216.70;79499;1300;3011497;-65
2023/12/31 06:42:22;;;;;;;23.20;13.20;;;;;;;2.93;87.55;99217.22;78934;1296;3011615;-66
2023/12/31 06:44:48;;;;;;;23.50;11.80;;;;;;;2.89;87.49;99219.95;79344;1298;3021123;-64
2023/12/31 06:47:16;;;;;;;22.30;12.50;;;;;;;3.44;87.43;99225.02;79408;1295;3013513;-65
2023/12/31 06:49:44;;;;;;;22.30;12.20;;;;;;;3.79;85.17;99226.17;78176;1301;3068966;-65
2023/12/31 06:52:11;;;;;;;17.70;10.10;;;;;;;3.87;85.36;99226.06;79576;1300;3013368;-67
2023/12/31 06:54:37;;;;;;;23.40;12.90;;;;;;;3.79;84.04;99225.48;79601;1300;3011671;-68
2023/12/31 06:57:07;;;;;;;25.70;12.30;;;;;;;3.45;85.11;99222.39;78198;1300;3026631;-67
2023/12/31 06:59:34;;;;;;;21.80;12.50;;;;;;;3.50;84.73;99228.25;79525;1300;3013468;-66
2023/12/31 07:02:00;;;;;;;20.70;12.00;;;;;;;3.22;85.49;99230.44;79323;1299;3011507;-69
2023/12/31 07:04:28;;;;;;;24.40;12.50;;;;;;;2.88;87.12;99228.79;78368;1299;3068043;-68
2023/12/31 07:06:58;;;;;;;17.70;10.40;;;;;;;3.03;87.62;99233.15;79645;1295;3013131;-68
2023/12/31 07:09:28;;;;;;;13.60;8.00;;;;;;;3.76;85.39;99232.02;79059;1296;3012006;-68
2023/12/31 07:11:55;;;;;;;15.80;9.60;;;;;;;4.27;82.80;99232.02;79585;1301;3012926;-68
2023/12/31 07:14:24;;;;;;;11.40;6.40;;;;;;;4.06;82.53;99225.77;79706;1296;3013208;-68
2023/12/31 07:16:55;;;;;;;17.90;9.50;;;;;;;4.18;82.19;99229.09;78445;1298;3052510;-68
2023/12/31 07:19:21;;;;;;;16.00;9.20;;;;;;;4.02;82.20;99234.73;79453;1298;3011894;-66
2023/12/31 07:21:50;;;;;;;17.70;9.30;;;;;;;3.91;82.21;99242.24;78918;1295;3011970;-67
2023/12/31 07:24:21;;;;;;;15.90;10.00;;;;;;;3.49;83.06;99245.96;79407;1295;3020545;-67
2023/12/31 15:24:49;;;;;;;12.70;5.60;;;;;;;4.89;74.94;99363.04;80213;1302;3013215;-69
2023/12/31 15:27:16;;;;;;;8.30;4.10;;;;;;;4.71;75.47;99363.75;79079;1304;3012009;-70
2023/12/31 15:29:45;;;;;;;10.30;5.30;;;;;;;4.81;74.95;99363.52;78541;1306;3011522;-70
2023/12/31 15:32:12;;;;;;;8.30;4.60;;;;;;;4.62;75.66;99367.20;79113;1306;3014824;-70
2023/12/31 15:34:39;;;;;;;8.40;4.30;;;;;;;4.61;75.48;99371.22;79090;1306;3013653;-69
2023/12/31 15:37:08;;;;;;;6.70;3.60;;;;;;;4.49;76.01;99364.55;77822;1306;3026463;-73
2023/12/31 15:39:35;;;;;;;9.00;3.90;;;;;;;4.32;76.49;99375.57;79347;1300;3011623;-71
2023/12/31 15:42:03;;;;;;;6.90;4.20;;;;;;;4.31;76.67;99374.94;79352;1301;3011586;-70
2023/12/31 15:44:31;;;;;;;9.30;4.20;;;;;;;4.18;77.11;99382.31;78290;1301;3049137;-69
2023/12/31 15:46:58;;;;;;;8.20;4.90;;;;;;;4.04;78.14;99375.89;79837;1294;3015966;-70
2023/12/31 15:49:25;;;;;;;11.90;6.10;;;;;;;4.08;77.72;99381.29;79774;1291;3011940;-70
2023/12/31 15:51:55;;;;;;;14.80;8.40;;;;;;;4.00;78.07;99386.08;78633;1294;3049965;-70
2023/12/31 15:54:21;;;;;;;13.80;8.70;;;;;;;3.97;78.16;99392.24;79794;1291;3011750;-70
2023/12/31 15:56:48;;;;;;;19.70;10.80;;;;;;;4.00;78.04;99395.64;79846;1291;3012962;-70
2023/12/31 15:59:16;;;;;;;15.20;9.70;;;;;;;4.04;78.13;99400.52;78539;1295;3050298;-71
2023/12/31 16:01:43;;;;;;;13.00;8.10;;;;;;;3.94;78.40;99400.51;79796;1292;3012735;-69
2023/12/31 16:04:10;;;;;;;12.10;7.20;;;;;;;4.03;77.89;99399.34;79799;1292;3011814;-70
2023/12/31 16:06:37;;;;;;;13.50;7.00;;;;;;;4.03;77.81;99401.23;78655;1292;3025858;-70
2023/12/31 16:09:06;;;;;;;13.60;6.10;;;;;;;4.00;77.91;99406.88;79807;1294;3013310;-69
2023/12/31 16:11:32;;;;;;;12.00;5.90;;;;;;;3.94;78.44;99411.09;79682;1292;3011576;-70
2023/12/31 16:14:00;;;;;;;6.40;4.30;;;;;;;4.55;77.85;99416.34;78483;1295;3050402;-70
2023/12/31 16:16:29;;;;;;;11.80;6.60;;;;;;;5.31;74.35;99410.71;79758;1291;3011742;-70
2023/12/31 16:18:55;;;;;;;11.20;6.60;;;;;;;5.23;73.83;99408.95;79861;1294;3012190;-69
2023/12/31 16:21:23;;;;;;;15.20;8.00;;;;;;;4.98;74.11;99415.30;78559;1290;3051319;-68
2023/12/31 16:23:50;;;;;;;14.00;8.20;;;;;;;4.66;74.77;99412.15;79929;1294;3012942;-71
2023/12/31 16:26:16;;;;;;;13.40;7.70;;;;;;;4.52;75.11;99410.75;79789;1294;3011684;-70
2023/12/31 16:28:44;;;;;;;15.30;7.20;;;;;;;4.38;75.61;99418.73;78583;1294;3026314;-69
2023/12/31 16:31:11;;;;;;;14.50;7.30;;;;;;;4.26;75.72;99418.46;79823;1294;3012858;-69
2023/12/31 16:33:38;;;;;;;12.40;7.10;;;;;;;4.12;76.24;99423.47;79826;1294;3011602;-69
2023/12/31 16:36:06;;;;;;;12.50;6.90;;;;;;;4.18;75.96;99425.52;78550;1292;3026141;-70
2023/12/31 16:38:33;;;;;;;14.60;8.50;;;;;;;4.03;76.56;99427.23;79825;1292;3014471;-69
2023/12/31 16:40:59;;;;;;;18.70;9.80;;;;;;;4.07;76.65;99433.88;79748;1294;3013608;-70
2023/12/31 16:43:27;;;;;;;22.30;11.00;;;;;;;4.08;76.42;99433.13;78578;1294;3049689;-71
2023/12/31 16:45:54;;;;;;;22.20;11.60;;;;;;;4.06;76.23;99433.55;79838;1295;3013640;-70
2023/12/31 16:48:21;;;;;;;21.50;10.80;;;;;;;3.94;77.13;99436.04;79863;1294;3011611;-68
2023/12/31 16:50:49;;;;;;;18.20;9.50;;;;;;;4.01;76.89;99435.28;78580;1294;3028800;-69
2023/12/31 16:53:15;;;;;;;18.40;10.10;;;;;;;4.06;76.30;99443.08;79897;1294;3019255;-70
2023/12/31 16:55:42;;;;;;;21.00;10.10;;;;;;;3.97;76.59;99444.91;79740;1292;3011883;-69
2023/12/31 16:58:11;;;;;;;14.90;8.90;;;;;;;3.83;77.14;99440.89;78681;1294;3049859;-69
2023/12/31 17:00:37;;;;;;;19.60;9.70;;;;;;;3.83;77.21;99446.27;79834;1294;3013470;-70
2023/12/31 17:03:04;;;;;;;21.70;11.70;;;;;;;3.68;78.22;99450.59;79750;1294;3012882;-69
2023/12/31 17:05:32;;;;;;;17.50;10.10;;;;;;;3.61;78.51;99459.11;78592;1294;3026714;-69
2023/12/31 17:07:59;;;;;;;17.10;8.90;;;;;;;3.74;78.14;99452.81;79756;1294;3018705;-68
2023/12/31 17:10:26;;;;;;;19.30;9.40;;;;;;;3.80;77.60;99455.38;79763;1292;3011572;-69
2023/12/31 17:12:54;;;;;;;17.90;8.90;;;;;;;3.84;77.54;99449.19;78572;1295;3050342;-71
2023/12/31 17:15:22;;;;;;;21.10;12.00;;;;;;;3.93;77.21;99453.73;79888;1295;3013762;-67
2023/12/31 17:17:49;;;;;;;21.10;10.80;;;;;;;3.97;76.91;99454.14;79794;1294;3011936;-69
2023/12/31 17:20:16;;;;;;;24.70;13.00;;;;;;;3.77;77.60;99453.57;78619;1294;3050368;-71
2023/12/31 17:22:43;;;;;;;25.70;11.60;;;;;;;3.67;78.25;99454.09;79779;1294;3013064;-70
2023/12/31 17:25:10;;;;;;;21.30;10.10;;;;;;;3.70;78.02;99451.91;79802;1292;3011749;-70
2023/12/31 17:27:38;;;;;;;18.60;9.00;;;;;;;3.68;77.91;99451.63;78601;1294;3025262;-69
2023/12/31 17:30:06;;;;;;;18.90;9.30;;;;;;;3.79;77.54;99454.20;79823;1294;3013635;-68
2023/12/31 17:32:34;;;;;;;18.00;7.90;;;;;;;3.73;77.59;99456.48;79828;1294;3011887;-69
2023/12/31 17:35:02;;;;;;;18.90;8.70;;;;;;;3.73;77.71;99456.83;78699;1292;3049708;-69
2023/12/31 17:37:29;;;;;;;19.00;8.30;;;;;;;3.68;77.92;99455.09;79732;1294;3013273;-67
2023/12/31 17:39:55;;;;;;;22.40;9.90;;;;;;;3.63;78.13;99459.73;79767;1291;3012870;-71
2023/12/31 17:42:23;;;;;;;20.60;9.50;;;;;;;3.64;78.18;99458.33;78586;1293;3026015;-69
2023/12/31 17:44:51;;;;;;;26.40;11.40;;;;;;;3.64;77.93;99456.09;79901;1294;3020904;-69
2023/12/31 17:47:21;;;;;;;28.60;13.50;;;;;;;3.56;78.28;99457.53;79746;1292;3013038;-69
2023/12/31 17:49:49;;;;;;;24.50;13.60;;;;;;;3.68;77.66;99453.88;78529;1291;3051451;-70
2023/12/31 17:52:16;;;;;;;29.20;12.70;;;;;;;3.57;78.07;99456.63;79834;1291;3013253;-70
2023/12/31 17:54:43;;;;;;;20.10;9.10;;;;;;;3.62;78.04;99457.52;79746;1292;3011649;-69
2023/12/31 17:57:11;;;;;;;17.10;7.90;;;;;;;4.23;77.45;99454.63;78536;1294;3049849;-69
2023/12/31 17:59:38;;;;;;;20.80;9.30;;;;;;;4.73;75.29;99444.35;79796;1294;3014050;-69
2023/12/31 18:02:05;;;;;;;34.50;9.90;;;;;;;4.81;74.72;99448.91;79831;1292;3011596;-71
2023/12/31 18:04:35;;;;;;;16.90;8.50;;;;;;;4.67;74.48;99454.82;78574;1294;3051748;-70
2023/12/31 18:07:01;;;;;;;20.40;10.10;;;;;;;4.73;74.35;99462.21;79800;1292;3013636;-69
2023/12/31 18:09:28;;;;;;;20.40;9.40;;;;;;;4.21;74.83;99466.51;79858;1289;3011602;-69
2023/12/31 18:11:56;;;;;;;19.30;9.40;;;;;;;3.87;75.99;99467.98;78578;1293;3049547;-70
2023/12/31 18:14:23;;;;;;;21.20;10.70;;;;;;;3.71;76.47;99468.67;79834;1294;3018561;-69
2023/12/31 18:16:49;;;;;;;15.90;9.10;;;;;;;3.37;77.66;99469.04;79888;1294;3011895;-67
2023/12/31 18:19:17;;;;;;;16.70;7.30;;;;;;;3.34;77.66;99479.35;78498;1292;3027415;-70
2023/12/31 18:21:44;;;;;;;14.60;6.60;;;;;;;3.12;78.33;99479.16;79801;1292;3013899;-69
2023/12/31 18:24:12;;;;;;;15.20;6.10;;;;;;;2.98;78.93;99478.19;79869;1292;3012415;-69
2023/12/31 18:26:40;;;;;;;10.60;6.00;;;;;;;2.89;79.24;99474.29;78513;1293;3050368;-71
2023/12/31 18:29:07;;;;;;;11.90;5.90;;;;;;;2.80;79.67;99476.61;79878;1294;3013646;-70
2023/12/31 18:31:35;;;;;;;13.80;6.10;;;;;;;2.77;79.88;99483.28;79782;1295;3011630;-70
2023/12/31 18:34:03;;;;;;;6.40;2.80;;;;;;;2.69;80.38;99486.25;78574;1292;3049464;-70
2023/12/31 18:36:29;;;;;;;11.70;4.90;;;;;;;3.23;79.72;99495.80;79943;1295;3013666;-69
2023/12/31 18:38:56;;;;;;;10.10;5.60;;;;;;;3.48;78.19;99496.24;79823;1292;3011956;-68
2023/12/31 18:41:24;;;;;;;11.60;6.20;;;;;;;3.75;78.00;99500.25;78586;1295;3026635;-69
2023/12/31 18:43:51;;;;;;;13.80;6.90;;;;;;;3.54;77.57;99501.07;79768;1295;3013705;-69
2023/12/31 18:46:19;;;;;;;17.80;7.70;;;;;;;3.14;78.47;99502.80;79818;1295;3011669;-71
2023/12/31 18:48:47;;;;;;;14.00;6.90;;;;;;;2.79;79.55;99503.80;78600;1294;3050203;-70
2023/12/31 18:51:14;;;;;;;16.30;7.50;;;;;;;2.61;80.10;99500.48;79776;1294;3013024;-69
2023/12/31 18:53:41;;;;;;;16.40;8.10;;;;;;;2.61;80.14;99500.15;79792;1292;3011640;-70
2023/12/31 18:56:10;;;;;;;19.10;7.40;;;;;;;2.50;80.19;99504.95;78622;1294;3028787;-71
2023/12/31 18:58:37;;;;;;;14.50;7.00;;;;;;;2.33;81.15;99506.61;79868;1295;3013419;-69
2023/12/31 19:01:03;;;;;;;11.00;6.30;;;;;;;2.14;82.04;99511.23;79759;1294;3013598;-68
2023/12/31 19:03:32;;;;;;;15.30;6.70;;;;;;;2.19;81.71;99511.48;78640;1295;3050674;-72
2023/12/31 19:05:59;;;;;;;15.30;7.00;;;;;;;2.25;81.42;99518.39;79872;1295;3013164;-70
2023/12/31 19:08:25;;;;;;;8.70;4.70;;;;;;;2.13;82.45;99524.39;79868;1292;3011913;-69
2023/12/31 19:10:53;;;;;;;9.80;5.30;;;;;;;2.98;81.37;99528.18;78664;1295;3049735;-71
2023/12/31 19:13:20;;;;;;;21.90;8.60;;;;;;;3.31;79.95;99530.33;79844;1295;3013740;-70